NCAR-RAP Real-Time Weather Data

Output produced by METARs form (23 June 2018  19:28 UTC)
found at http://weather.rap.ucar.edu/surface/
 
RJAA 231900Z 16003KT 3200 -SHRA BR FEW005 BKN130 18/18 Q1005 TEMPO 3000 -RA BR FEW006 BKN012 RMK 1ST005 7AC130 A2968
 
 
RJAH 231900Z 36003KT 1200 R03/1800D BR MIFG FEW001 BKN003 BKN120 18/17 Q1004
 
RJGG 231900Z 05006KT 5000 -SHRA BR FEW015 BKN030 BKN070 19/18 Q1004 NOSIG
 
RJNK 231900Z 18003KT 150V230 9999 FEW100 SCT120 17/11 Q1004
 
 
 
 
 
 
RJTT 231916Z 18008KT 9999 FEW008 BKN013 BKN150 21/19 Q1004 RMK 1ST008 5CU013 7AC150 A2966